createdAt,value
2023-09-05T00:01:36.910Z,100
2023-09-05T00:06:28.048Z,100
2023-09-05T00:11:30.490Z,100
2023-09-05T00:16:27.968Z,100
2023-09-05T00:21:31.890Z,100
2023-09-05T00:26:36.503Z,100
2023-09-05T00:31:38.014Z,100
2023-09-05T00:36:28.131Z,100
2023-09-05T00:41:42.888Z,100
2023-09-05T00:46:30.030Z,100
2023-09-05T00:51:28.946Z,100
2023-09-05T00:56:34.855Z,100
2023-09-05T01:01:28.037Z,100
2023-09-05T01:06:34.506Z,100
2023-09-05T01:11:32.654Z,100
2023-09-05T01:16:31.222Z,100
2023-09-05T01:21:31.331Z,100
2023-09-05T01:26:32.363Z,100
2023-09-05T01:31:34.429Z,100
2023-09-05T01:36:28.493Z,100
2023-09-05T01:41:30.977Z,100
2023-09-05T01:46:33.748Z,100
2023-09-05T01:51:45.461Z,100
2023-09-05T01:56:31.347Z,100
2023-09-05T02:01:34.365Z,100
2023-09-05T02:07:18.116Z,100
2023-09-05T02:11:48.010Z,100
2023-09-05T02:16:46.426Z,100
2023-09-05T02:21:49.563Z,100
2023-09-05T02:26:58.301Z,100
2023-09-05T02:41:42.438Z,100
2023-09-05T02:46:44.289Z,100
2023-09-05T02:51:27.038Z,100
2023-09-05T02:56:33.747Z,100
2023-09-05T03:01:40.695Z,100
2023-09-05T03:06:32.391Z,100
2023-09-05T03:11:38.048Z,100
2023-09-05T03:16:49.648Z,100
2023-09-05T03:21:35.246Z,100
2023-09-05T03:26:40.151Z,100
2023-09-05T03:31:24.982Z,100
2023-09-05T03:36:29.060Z,100
2023-09-05T03:41:34.918Z,100
2023-09-05T03:46:33.669Z,100
2023-09-05T03:52:01.116Z,100
2023-09-05T03:57:03.667Z,100
2023-09-05T04:01:50.002Z,100
2023-09-05T04:07:20.967Z,100
2023-09-05T04:29:07.360Z,100
2023-09-05T04:33:15.494Z,100
2023-09-05T04:56:21.586Z,100
2023-09-05T05:18:40.816Z,100
2023-09-05T05:23:21.693Z,100
2023-09-05T05:28:34.354Z,100
2023-09-05T05:33:43.562Z,100
2023-09-05T05:38:20.548Z,100
2023-09-05T05:43:29.567Z,100
2023-09-05T05:48:28.124Z,100
2023-09-05T05:53:51.926Z,100
2023-09-05T06:03:44.398Z,96.78516
2023-09-05T06:08:47.362Z,92.01758
2023-09-05T06:13:47.258Z,87.91211
2023-09-05T06:18:24.922Z,84.67871
2023-09-05T06:23:44.253Z,80.88086
2023-09-05T06:34:31.671Z,75.40625
2023-09-05T06:39:32.324Z,73.35156
2023-09-05T06:44:36.260Z,70.69727
2023-09-05T06:49:27.594Z,68.27539
2023-09-05T06:54:30.642Z,67.32422
2023-09-05T06:59:52.819Z,67.79004
2023-09-05T07:04:34.745Z,67.38086
2023-09-05T07:09:31.838Z,66.41211
2023-09-05T07:14:47.084Z,67.49414
2023-09-05T07:19:33.961Z,66.55566
2023-09-05T07:24:34.618Z,66.34961
2023-09-05T07:29:36.913Z,66.62402
2023-09-05T07:34:32.891Z,66.58887
2023-09-05T07:39:37.267Z,66.81445
2023-09-05T07:44:35.805Z,65.38379
2023-09-05T07:49:53.552Z,64.06445
2023-09-05T07:54:34.051Z,64.27246
2023-09-05T07:59:39.289Z,64.32031
2023-09-05T08:04:44.152Z,63.73242
2023-09-05T08:09:30.443Z,62.92773
2023-09-05T08:19:26.338Z,61.16211
2023-09-05T08:24:22.793Z,60.72852
2023-09-05T08:29:42.224Z,58.58301
2023-09-05T09:05:00.564Z,57.17578
2023-09-05T09:29:15.419Z,53.36133
2023-09-05T09:34:30.171Z,53.09863
2023-09-05T10:18:53.676Z,48.15918
2023-09-05T10:23:55.751Z,47.03809
2023-09-05T10:28:51.673Z,47.21875
2023-09-05T10:33:50.858Z,48.33203
2023-09-05T10:38:59.076Z,44.87598
2023-09-05T10:43:58.814Z,45.13672
2023-09-05T10:53:55.697Z,43.22754
2023-09-05T10:58:49.473Z,42.31445
2023-09-05T11:03:49.011Z,40.81738
2023-09-05T11:09:03.296Z,41.01953
2023-09-05T11:14:09.057Z,41.32031
2023-09-05T11:19:02.061Z,40.25879
2023-09-05T11:23:57.659Z,39.37598
2023-09-05T11:28:47.140Z,39.74512
2023-09-05T11:33:53.424Z,41.03223
2023-09-05T11:38:57.628Z,40.52441
2023-09-05T11:44:02.622Z,38.89355
2023-09-05T11:48:53.972Z,39.50586
2023-09-05T11:53:54.174Z,38.97266
2023-09-05T11:58:54.699Z,40.51074
2023-09-05T12:03:55.301Z,40.1748
2023-09-05T12:09:02.228Z,40.19238
2023-09-05T12:18:50.063Z,39.45801
2023-09-05T12:24:04.124Z,40.13672
2023-09-05T12:28:47.456Z,40.19727
2023-09-05T12:33:53.930Z,40.80371
2023-09-05T12:38:54.352Z,40.05957
2023-09-05T12:43:49.362Z,39.21973
2023-09-05T12:48:55.582Z,39.02246
2023-09-05T12:53:52.720Z,39.41016
2023-09-05T12:58:52.600Z,39.36133
2023-09-05T13:03:47.973Z,39.05078
2023-09-05T13:08:48.363Z,39.03711
2023-09-05T13:13:53.471Z,38.21094
2023-09-05T13:18:54.116Z,37.88965
2023-09-05T13:23:50.458Z,37.9707
2023-09-05T13:29:05.321Z,37.4873
2023-09-05T13:33:52.708Z,38.06543
2023-09-05T13:38:49.161Z,37.93848
2023-09-05T13:44:03.870Z,38.77637
2023-09-05T13:49:02.393Z,37.89551
2023-09-05T13:53:49.914Z,37.6123
2023-09-05T13:59:09.958Z,38.74902
2023-09-05T14:03:50.618Z,38.47754
2023-09-05T14:09:13.323Z,38.49707
2023-09-05T14:13:46.899Z,37.74805
2023-09-05T14:18:48.871Z,37.69336
2023-09-05T14:28:56.230Z,37.15137
2023-09-05T14:33:54.558Z,37.60156
2023-09-05T14:38:51.937Z,36.77539
2023-09-05T14:43:46.180Z,36.29785
2023-09-05T14:48:47.088Z,37.25293
2023-09-05T14:53:50.541Z,37.06348
2023-09-05T14:58:49.188Z,37.78125
2023-09-05T15:03:46.958Z,38.15137
2023-09-05T15:08:50.734Z,38.50293
2023-09-05T15:13:51.847Z,37.75781
2023-09-05T15:18:55.662Z,37.86914
2023-09-05T15:24:03.222Z,40.62793
2023-09-05T15:28:49.319Z,38.55859
2023-09-05T15:33:47.563Z,38.70605
2023-09-05T15:38:53.250Z,37.91309
2023-09-05T15:43:55.322Z,38.87598
2023-09-05T15:48:49.492Z,38.71777
2023-09-05T15:53:52.296Z,38.94336
2023-09-05T15:58:56.068Z,38.27344
2023-09-05T16:04:00.537Z,38.86914
2023-09-05T16:08:56.465Z,40.59473
2023-09-05T16:13:50.360Z,39.18555
2023-09-05T16:18:55.306Z,38.84082
2023-09-05T16:23:55.686Z,39.8291
2023-09-05T16:28:56.558Z,39.93652
2023-09-05T16:33:59.459Z,40.40137
2023-09-05T16:39:02.154Z,40.84375
2023-09-05T16:43:50.945Z,41.15527
2023-09-05T16:48:52.336Z,42.44336
2023-09-05T16:53:58.664Z,42.53125
2023-09-05T16:59:07.186Z,43.58301
2023-09-05T17:08:50.434Z,45.87402
2023-09-05T17:13:45.959Z,46.76855
2023-09-05T17:18:48.933Z,46.98828
2023-09-05T17:24:01.594Z,47.95898
2023-09-05T17:28:50.372Z,48.67871
2023-09-05T17:33:51.843Z,49.61328
2023-09-05T17:38:55.911Z,50.10742
2023-09-05T17:43:47.887Z,51.04492
2023-09-05T17:48:53.108Z,51.9668
2023-09-05T17:53:46.578Z,52.68262
2023-09-05T17:58:51.500Z,53.42383
2023-09-05T18:04:00.799Z,54.27148
2023-09-05T18:08:46.459Z,55.17188
2023-09-05T18:13:50.376Z,56.2793
2023-09-05T18:18:48.129Z,57.17871
2023-09-05T18:23:47.761Z,58.39355
2023-09-05T18:28:53.323Z,59.14746
2023-09-05T18:33:47.017Z,61.57617
2023-09-05T18:43:51.921Z,64.0459
2023-09-05T18:48:47.173Z,65.08594
2023-09-05T18:53:49.058Z,65.67969
2023-09-05T18:58:46.101Z,66.45508
2023-09-05T19:03:46.040Z,66.57324
2023-09-05T19:08:54.677Z,67.51074
2023-09-05T19:13:56.130Z,68.16016
2023-09-05T19:18:47.745Z,68.06836
2023-09-05T19:23:46.179Z,68.6709
2023-09-05T19:28:49.658Z,69.63867
2023-09-05T19:33:47.304Z,70.10059
2023-09-05T19:38:49.147Z,71.17188
2023-09-05T19:43:57.021Z,71.65332
2023-09-05T19:48:47.130Z,72.34766
2023-09-05T19:53:52.231Z,73.88672
2023-09-05T19:58:49.910Z,75.05664
2023-09-05T20:03:55.067Z,75.15234
2023-09-05T20:08:49.461Z,74.38867
2023-09-05T20:13:46.752Z,75.56641
2023-09-05T20:18:46.354Z,72.86816
2023-09-05T20:23:58.749Z,75.98828
2023-09-05T20:28:46.120Z,76.8252
2023-09-05T20:33:48.260Z,73.51367
2023-09-05T20:38:57.867Z,76.09766
2023-09-05T20:43:49.492Z,75.69629
2023-09-05T20:49:00.185Z,75.23535
2023-09-05T20:53:52.080Z,76.34668
2023-09-05T20:58:47.798Z,77.29297
2023-09-05T21:03:53.364Z,78.09863
2023-09-05T21:08:59.684Z,78.00098
2023-09-05T21:13:50.507Z,78.36133
2023-09-05T21:18:56.713Z,79.89648
2023-09-05T21:23:50.147Z,80.54297
2023-09-05T21:28:49.684Z,80.42676
2023-09-05T21:33:46.206Z,81.41699
2023-09-05T21:38:47.493Z,78.56348
2023-09-05T21:43:56.833Z,82.08203
2023-09-05T21:48:48.462Z,82.33008
2023-09-05T21:53:48.209Z,81.68164
2023-09-05T21:58:48.442Z,82.24414
2023-09-05T22:03:53.437Z,84.1582
2023-09-05T22:08:48.020Z,84.88965
2023-09-05T22:13:49.407Z,85.1084
2023-09-05T22:18:48.113Z,85.5332
2023-09-05T22:23:46.703Z,85.93652
2023-09-05T22:28:49.303Z,86.10352
2023-09-05T22:33:47.441Z,84.8916
2023-09-05T22:39:15.084Z,86.41309
2023-09-05T22:48:30.407Z,86.39063
2023-09-05T22:53:35.519Z,87.2666
2023-09-05T22:58:47.905Z,85.73242
2023-09-05T23:03:26.130Z,86.94238
2023-09-05T23:09:03.952Z,86.74316
2023-09-05T23:13:31.380Z,86.72656
2023-09-05T23:18:37.508Z,88.1543
2023-09-05T23:23:25.784Z,88.67188
2023-09-05T23:28:21.377Z,88.78711
2023-09-05T23:54:41.321Z,89.38672
2023-09-05T23:59:50.623Z,90.4248
